sensor_id;sensor_type;location;lat;lon;timestamp;P1;durP1;ratioP1;P2;durP2;ratioP2
15408;SDS011;7803;48.130;13.788;2023-05-07T00:01:52;11.50;;;10.32;;
15408;SDS011;7803;48.130;13.788;2023-05-07T00:04:54;10.60;;;9.60;;
15408;SDS011;7803;48.130;13.788;2023-05-07T00:07:56;10.82;;;9.82;;
15408;SDS011;7803;48.130;13.788;2023-05-07T00:10:58;10.88;;;9.77;;
15408;SDS011;7803;48.130;13.788;2023-05-07T00:14:00;10.60;;;9.60;;
15408;SDS011;7803;48.130;13.788;2023-05-07T00:17:03;10.82;;;9.82;;
15408;SDS011;7803;48.130;13.788;2023-05-07T00:20:06;11.95;;;10.85;;
15408;SDS011;7803;48.130;13.788;2023-05-07T00:23:09;11.88;;;10.77;;
15408;SDS011;7803;48.130;13.788;2023-05-07T00:26:11;11.38;;;10.32;;
15408;SDS011;7803;48.130;13.788;2023-05-07T00:29:13;10.88;;;9.88;;
15408;SDS011;7803;48.130;13.788;2023-05-07T00:32:16;11.35;;;10.35;;
15408;SDS011;7803;48.130;13.788;2023-05-07T00:35:18;11.27;;;10.25;;
15408;SDS011;7803;48.130;13.788;2023-05-07T00:38:20;11.85;;;10.75;;
15408;SDS011;7803;48.130;13.788;2023-05-07T00:41:22;12.05;;;10.95;;
15408;SDS011;7803;48.130;13.788;2023-05-07T00:44:25;11.98;;;10.82;;
15408;SDS011;7803;48.130;13.788;2023-05-07T00:47:29;10.57;;;9.68;;
15408;SDS011;7803;48.130;13.788;2023-05-07T00:50:32;11.57;;;10.57;;
15408;SDS011;7803;48.130;13.788;2023-05-07T00:53:34;11.98;;;10.88;;
15408;SDS011;7803;48.130;13.788;2023-05-07T00:56:36;12.10;;;11.00;;
15408;SDS011;7803;48.130;13.788;2023-05-07T00:59:39;12.55;;;11.43;;
15408;SDS011;7803;48.130;13.788;2023-05-07T01:02:42;11.80;;;10.70;;
15408;SDS011;7803;48.130;13.788;2023-05-07T01:05:45;11.40;;;10.40;;
15408;SDS011;7803;48.130;13.788;2023-05-07T01:08:48;12.65;;;11.45;;
15408;SDS011;7803;48.130;13.788;2023-05-07T01:11:52;12.18;;;11.07;;
15408;SDS011;7803;48.130;13.788;2023-05-07T01:14:57;12.45;;;11.25;;
15408;SDS011;7803;48.130;13.788;2023-05-07T01:18:01;11.77;;;10.77;;
15408;SDS011;7803;48.130;13.788;2023-05-07T01:21:04;12.55;;;11.45;;
15408;SDS011;7803;48.130;13.788;2023-05-07T01:24:08;12.68;;;11.48;;
15408;SDS011;7803;48.130;13.788;2023-05-07T01:27:10;12.07;;;10.98;;
15408;SDS011;7803;48.130;13.788;2023-05-07T01:30:12;12.70;;;11.50;;
15408;SDS011;7803;48.130;13.788;2023-05-07T01:33:15;11.77;;;10.68;;
15408;SDS011;7803;48.130;13.788;2023-05-07T01:36:22;12.63;;;11.43;;
15408;SDS011;7803;48.130;13.788;2023-05-07T01:39:28;12.07;;;10.95;;
15408;SDS011;7803;48.130;13.788;2023-05-07T01:42:31;12.07;;;10.98;;
15408;SDS011;7803;48.130;13.788;2023-05-07T01:45:34;12.95;;;11.75;;
15408;SDS011;7803;48.130;13.788;2023-05-07T01:48:37;11.70;;;10.60;;
15408;SDS011;7803;48.130;13.788;2023-05-07T01:51:39;11.95;;;10.85;;
15408;SDS011;7803;48.130;13.788;2023-05-07T01:54:43;11.65;;;10.55;;
15408;SDS011;7803;48.130;13.788;2023-05-07T01:57:45;12.23;;;11.13;;
15408;SDS011;7803;48.130;13.788;2023-05-07T02:00:47;12.00;;;10.90;;
15408;SDS011;7803;48.130;13.788;2023-05-07T02:03:49;12.13;;;11.02;;
15408;SDS011;7803;48.130;13.788;2023-05-07T02:06:51;11.57;;;10.57;;
15408;SDS011;7803;48.130;13.788;2023-05-07T02:09:55;12.05;;;11.05;;
15408;SDS011;7803;48.130;13.788;2023-05-07T02:12:57;12.95;;;11.75;;
15408;SDS011;7803;48.130;13.788;2023-05-07T02:15:59;11.90;;;10.80;;
15408;SDS011;7803;48.130;13.788;2023-05-07T02:19:01;11.70;;;10.60;;
15408;SDS011;7803;48.130;13.788;2023-05-07T02:22:03;11.93;;;10.82;;
15408;SDS011;7803;48.130;13.788;2023-05-07T02:25:07;11.25;;;10.25;;
15408;SDS011;7803;48.130;13.788;2023-05-07T02:28:09;11.40;;;10.30;;
15408;SDS011;7803;48.130;13.788;2023-05-07T02:31:11;11.00;;;10.00;;
15408;SDS011;7803;48.130;13.788;2023-05-07T02:34:13;11.05;;;10.05;;
15408;SDS011;7803;48.130;13.788;2023-05-07T02:37:15;11.70;;;10.63;;
15408;SDS011;7803;48.130;13.788;2023-05-07T02:40:18;11.25;;;10.25;;
15408;SDS011;7803;48.130;13.788;2023-05-07T02:43:20;11.77;;;10.68;;
15408;SDS011;7803;48.130;13.788;2023-05-07T02:46:22;12.30;;;11.18;;
15408;SDS011;7803;48.130;13.788;2023-05-07T02:49:24;11.63;;;10.57;;
15408;SDS011;7803;48.130;13.788;2023-05-07T02:52:26;11.13;;;10.13;;
15408;SDS011;7803;48.130;13.788;2023-05-07T02:55:30;11.18;;;10.18;;
15408;SDS011;7803;48.130;13.788;2023-05-07T02:58:32;10.80;;;9.82;;
15408;SDS011;7803;48.130;13.788;2023-05-07T03:01:34;11.23;;;10.23;;
15408;SDS011;7803;48.130;13.788;2023-05-07T03:04:36;10.30;;;9.40;;
15408;SDS011;7803;48.130;13.788;2023-05-07T03:07:39;10.77;;;9.77;;
15408;SDS011;7803;48.130;13.788;2023-05-07T03:10:42;11.07;;;10.07;;
15408;SDS011;7803;48.130;13.788;2023-05-07T03:13:44;10.80;;;9.80;;
15408;SDS011;7803;48.130;13.788;2023-05-07T03:16:46;11.05;;;10.05;;
15408;SDS011;7803;48.130;13.788;2023-05-07T03:19:48;10.57;;;9.55;;
15408;SDS011;7803;48.130;13.788;2023-05-07T03:22:50;10.57;;;9.68;;
15408;SDS011;7803;48.130;13.788;2023-05-07T03:25:54;10.52;;;9.57;;
15408;SDS011;7803;48.130;13.788;2023-05-07T03:28:56;10.25;;;9.35;;
15408;SDS011;7803;48.130;13.788;2023-05-07T03:31:58;10.90;;;9.90;;
15408;SDS011;7803;48.130;13.788;2023-05-07T03:35:00;10.18;;;9.20;;
15408;SDS011;7803;48.130;13.788;2023-05-07T03:38:02;10.07;;;9.18;;
15408;SDS011;7803;48.130;13.788;2023-05-07T03:41:06;9.68;;;8.88;;
15408;SDS011;7803;48.130;13.788;2023-05-07T03:44:08;9.82;;;8.93;;
15408;SDS011;7803;48.130;13.788;2023-05-07T03:47:10;9.68;;;8.77;;
15408;SDS011;7803;48.130;13.788;2023-05-07T03:50:13;9.73;;;8.88;;
15408;SDS011;7803;48.130;13.788;2023-05-07T03:53:15;9.77;;;8.88;;
15408;SDS011;7803;48.130;13.788;2023-05-07T03:56:18;9.80;;;8.90;;
15408;SDS011;7803;48.130;13.788;2023-05-07T03:59:21;9.27;;;8.48;;
15408;SDS011;7803;48.130;13.788;2023-05-07T04:02:23;9.20;;;8.40;;
15408;SDS011;7803;48.130;13.788;2023-05-07T04:05:25;9.45;;;8.65;;
15408;SDS011;7803;48.130;13.788;2023-05-07T04:08:27;8.85;;;8.07;;
15408;SDS011;7803;48.130;13.788;2023-05-07T04:11:31;9.23;;;8.38;;
15408;SDS011;7803;48.130;13.788;2023-05-07T04:14:32;8.85;;;8.05;;
15408;SDS011;7803;48.130;13.788;2023-05-07T04:17:35;8.93;;;8.15;;
15408;SDS011;7803;48.130;13.788;2023-05-07T04:20:36;9.20;;;8.40;;
15408;SDS011;7803;48.130;13.788;2023-05-07T04:23:38;8.88;;;8.07;;
15408;SDS011;7803;48.130;13.788;2023-05-07T04:26:42;8.35;;;7.63;;
15408;SDS011;7803;48.130;13.788;2023-05-07T04:29:44;9.20;;;8.30;;
15408;SDS011;7803;48.130;13.788;2023-05-07T04:32:47;8.60;;;7.80;;
15408;SDS011;7803;48.130;13.788;2023-05-07T04:35:49;8.32;;;7.63;;
15408;SDS011;7803;48.130;13.788;2023-05-07T04:38:51;8.75;;;7.95;;
15408;SDS011;7803;48.130;13.788;2023-05-07T04:41:54;8.75;;;7.95;;
15408;SDS011;7803;48.130;13.788;2023-05-07T04:44:56;7.93;;;7.22;;
15408;SDS011;7803;48.130;13.788;2023-05-07T04:47:58;8.05;;;7.35;;
15408;SDS011;7803;48.130;13.788;2023-05-07T04:51:00;7.95;;;7.25;;
15408;SDS011;7803;48.130;13.788;2023-05-07T04:54:02;8.05;;;7.35;;
15408;SDS011;7803;48.130;13.788;2023-05-07T04:57:05;8.00;;;7.20;;
15408;SDS011;7803;48.130;13.788;2023-05-07T05:00:07;7.82;;;7.15;;
15408;SDS011;7803;48.130;13.788;2023-05-07T05:03:10;8.30;;;7.53;;
15408;SDS011;7803;48.130;13.788;2023-05-07T05:06:12;8.05;;;7.28;;
15408;SDS011;7803;48.130;13.788;2023-05-07T05:09:14;7.88;;;7.18;;
15408;SDS011;7803;48.130;13.788;2023-05-07T05:12:17;8.18;;;7.47;;
15408;SDS011;7803;48.130;13.788;2023-05-07T05:15:19;7.50;;;6.80;;
15408;SDS011;7803;48.130;13.788;2023-05-07T05:18:21;7.30;;;6.63;;
15408;SDS011;7803;48.130;13.788;2023-05-07T05:21:23;7.18;;;6.57;;
15408;SDS011;7803;48.130;13.788;2023-05-07T05:24:25;7.55;;;6.95;;
15408;SDS011;7803;48.130;13.788;2023-05-07T05:27:29;7.35;;;6.70;;
15408;SDS011;7803;48.130;13.788;2023-05-07T05:30:31;7.50;;;6.80;;
15408;SDS011;7803;48.130;13.788;2023-05-07T05:33:33;7.60;;;6.90;;
15408;SDS011;7803;48.130;13.788;2023-05-07T05:36:35;8.00;;;7.20;;
15408;SDS011;7803;48.130;13.788;2023-05-07T05:39:37;6.93;;;6.30;;
15408;SDS011;7803;48.130;13.788;2023-05-07T05:42:40;6.90;;;6.30;;
15408;SDS011;7803;48.130;13.788;2023-05-07T05:45:42;6.68;;;6.15;;
15408;SDS011;7803;48.130;13.788;2023-05-07T05:48:44;7.05;;;6.45;;
15408;SDS011;7803;48.130;13.788;2023-05-07T05:51:46;7.15;;;6.55;;
15408;SDS011;7803;48.130;13.788;2023-05-07T05:54:48;6.90;;;6.30;;
15408;SDS011;7803;48.130;13.788;2023-05-07T05:57:51;7.00;;;6.40;;
15408;SDS011;7803;48.130;13.788;2023-05-07T06:00:53;6.88;;;6.28;;
15408;SDS011;7803;48.130;13.788;2023-05-07T06:03:56;6.82;;;6.22;;
15408;SDS011;7803;48.130;13.788;2023-05-07T06:06:58;6.50;;;5.90;;
15408;SDS011;7803;48.130;13.788;2023-05-07T06:10:00;6.82;;;6.22;;
15408;SDS011;7803;48.130;13.788;2023-05-07T06:13:03;6.72;;;6.15;;
15408;SDS011;7803;48.130;13.788;2023-05-07T06:16:06;6.63;;;6.13;;
15408;SDS011;7803;48.130;13.788;2023-05-07T06:19:08;6.25;;;5.75;;
15408;SDS011;7803;48.130;13.788;2023-05-07T06:22:10;6.93;;;6.32;;
15408;SDS011;7803;48.130;13.788;2023-05-07T06:25:12;6.18;;;5.68;;
15408;SDS011;7803;48.130;13.788;2023-05-07T06:28:15;6.63;;;6.03;;
15408;SDS011;7803;48.130;13.788;2023-05-07T06:31:18;6.65;;;6.05;;
15408;SDS011;7803;48.130;13.788;2023-05-07T06:34:21;6.68;;;6.07;;
15408;SDS011;7803;48.130;13.788;2023-05-07T06:37:23;6.60;;;6.05;;
15408;SDS011;7803;48.130;13.788;2023-05-07T06:40:25;6.45;;;5.95;;
15408;SDS011;7803;48.130;13.788;2023-05-07T06:43:28;6.20;;;5.70;;
15408;SDS011;7803;48.130;13.788;2023-05-07T06:46:30;6.20;;;5.70;;
15408;SDS011;7803;48.130;13.788;2023-05-07T06:49:32;6.10;;;5.60;;
15408;SDS011;7803;48.130;13.788;2023-05-07T06:52:34;6.13;;;5.63;;
15408;SDS011;7803;48.130;13.788;2023-05-07T06:55:36;6.50;;;5.90;;
15408;SDS011;7803;48.130;13.788;2023-05-07T06:58:40;5.97;;;5.47;;
15408;SDS011;7803;48.130;13.788;2023-05-07T07:01:42;5.78;;;5.28;;
15408;SDS011;7803;48.130;13.788;2023-05-07T07:04:44;5.85;;;5.35;;
15408;SDS011;7803;48.130;13.788;2023-05-07T07:07:46;6.80;;;6.10;;
15408;SDS011;7803;48.130;13.788;2023-05-07T07:10:52;6.18;;;5.68;;
15408;SDS011;7803;48.130;13.788;2023-05-07T07:13:56;6.43;;;5.85;;
15408;SDS011;7803;48.130;13.788;2023-05-07T07:16:59;5.88;;;5.38;;
15408;SDS011;7803;48.130;13.788;2023-05-07T07:20:00;5.53;;;5.07;;
15408;SDS011;7803;48.130;13.788;2023-05-07T07:23:03;6.07;;;5.57;;
15408;SDS011;7803;48.130;13.788;2023-05-07T07:26:05;5.90;;;5.40;;
15408;SDS011;7803;48.130;13.788;2023-05-07T07:29:08;5.80;;;5.30;;
15408;SDS011;7803;48.130;13.788;2023-05-07T07:32:10;5.38;;;4.95;;
15408;SDS011;7803;48.130;13.788;2023-05-07T07:35:12;5.43;;;5.03;;
15408;SDS011;7803;48.130;13.788;2023-05-07T07:38:14;5.68;;;5.22;;
15408;SDS011;7803;48.130;13.788;2023-05-07T07:41:16;5.85;;;5.35;;
15408;SDS011;7803;48.130;13.788;2023-05-07T07:44:19;5.70;;;5.20;;
15408;SDS011;7803;48.130;13.788;2023-05-07T07:47:21;5.38;;;4.88;;
15408;SDS011;7803;48.130;13.788;2023-05-07T07:50:23;5.80;;;5.30;;
15408;SDS011;7803;48.130;13.788;2023-05-07T07:53:25;5.80;;;5.30;;
15408;SDS011;7803;48.130;13.788;2023-05-07T07:56:27;5.97;;;5.47;;
15408;SDS011;7803;48.130;13.788;2023-05-07T07:59:31;5.53;;;5.05;;
15408;SDS011;7803;48.130;13.788;2023-05-07T08:02:33;5.10;;;4.70;;
15408;SDS011;7803;48.130;13.788;2023-05-07T08:05:35;5.53;;;5.13;;
15408;SDS011;7803;48.130;13.788;2023-05-07T08:08:38;5.10;;;4.70;;
15408;SDS011;7803;48.130;13.788;2023-05-07T08:11:40;5.32;;;4.93;;
15408;SDS011;7803;48.130;13.788;2023-05-07T08:14:44;5.45;;;4.95;;
15408;SDS011;7803;48.130;13.788;2023-05-07T08:17:46;5.65;;;5.15;;
15408;SDS011;7803;48.130;13.788;2023-05-07T08:20:47;5.60;;;5.10;;
15408;SDS011;7803;48.130;13.788;2023-05-07T08:23:49;5.63;;;5.13;;
15408;SDS011;7803;48.130;13.788;2023-05-07T08:26:51;5.00;;;4.60;;
15408;SDS011;7803;48.130;13.788;2023-05-07T08:29:55;4.85;;;4.45;;
15408;SDS011;7803;48.130;13.788;2023-05-07T08:32:57;4.80;;;4.40;;
15408;SDS011;7803;48.130;13.788;2023-05-07T08:35:59;4.78;;;4.38;;
15408;SDS011;7803;48.130;13.788;2023-05-07T08:39:01;5.03;;;4.53;;
15408;SDS011;7803;48.130;13.788;2023-05-07T08:42:03;4.72;;;4.32;;
15408;SDS011;7803;48.130;13.788;2023-05-07T08:45:08;5.32;;;4.82;;
15408;SDS011;7803;48.130;13.788;2023-05-07T08:48:14;5.47;;;4.97;;
15408;SDS011;7803;48.130;13.788;2023-05-07T08:51:18;5.18;;;4.68;;
15408;SDS011;7803;48.130;13.788;2023-05-07T08:54:21;4.82;;;4.43;;
15408;SDS011;7803;48.130;13.788;2023-05-07T08:57:24;5.00;;;4.50;;
15408;SDS011;7803;48.130;13.788;2023-05-07T09:00:27;5.10;;;4.70;;
15408;SDS011;7803;48.130;13.788;2023-05-07T09:03:30;4.75;;;4.35;;
15408;SDS011;7803;48.130;13.788;2023-05-07T09:06:32;4.97;;;4.57;;
15408;SDS011;7803;48.130;13.788;2023-05-07T09:09:34;4.80;;;4.40;;
15408;SDS011;7803;48.130;13.788;2023-05-07T09:12:36;4.82;;;4.43;;
15408;SDS011;7803;48.130;13.788;2023-05-07T09:15:40;4.90;;;4.50;;
15408;SDS011;7803;48.130;13.788;2023-05-07T09:18:42;5.03;;;4.57;;
15408;SDS011;7803;48.130;13.788;2023-05-07T09:21:45;4.75;;;4.35;;
15408;SDS011;7803;48.130;13.788;2023-05-07T09:24:47;4.97;;;4.57;;
15408;SDS011;7803;48.130;13.788;2023-05-07T09:27:49;4.93;;;4.53;;
15408;SDS011;7803;48.130;13.788;2023-05-07T09:30:53;4.93;;;4.53;;
15408;SDS011;7803;48.130;13.788;2023-05-07T09:33:57;4.78;;;4.30;;
15408;SDS011;7803;48.130;13.788;2023-05-07T09:36:59;4.85;;;4.45;;
15408;SDS011;7803;48.130;13.788;2023-05-07T09:40:02;4.97;;;4.40;;
15408;SDS011;7803;48.130;13.788;2023-05-07T09:43:09;4.97;;;4.57;;
15408;SDS011;7803;48.130;13.788;2023-05-07T09:46:14;4.50;;;4.10;;
15408;SDS011;7803;48.130;13.788;2023-05-07T09:49:18;4.60;;;4.20;;
15408;SDS011;7803;48.130;13.788;2023-05-07T09:52:22;4.80;;;4.40;;
15408;SDS011;7803;48.130;13.788;2023-05-07T09:55:28;5.15;;;4.65;;
15408;SDS011;7803;48.130;13.788;2023-05-07T09:58:31;4.78;;;4.38;;
15408;SDS011;7803;48.130;13.788;2023-05-07T10:01:36;4.72;;;4.32;;
15408;SDS011;7803;48.130;13.788;2023-05-07T10:04:39;4.60;;;4.20;;
15408;SDS011;7803;48.130;13.788;2023-05-07T10:07:42;4.93;;;4.53;;
15408;SDS011;7803;48.130;13.788;2023-05-07T10:10:44;4.65;;;4.25;;
15408;SDS011;7803;48.130;13.788;2023-05-07T10:13:47;4.57;;;4.18;;
15408;SDS011;7803;48.130;13.788;2023-05-07T10:16:51;4.45;;;4.13;;
15408;SDS011;7803;48.130;13.788;2023-05-07T10:19:54;4.55;;;4.15;;
15408;SDS011;7803;48.130;13.788;2023-05-07T10:22:56;4.80;;;4.38;;
15408;SDS011;7803;48.130;13.788;2023-05-07T10:25:59;4.40;;;4.00;;
15408;SDS011;7803;48.130;13.788;2023-05-07T10:29:05;4.35;;;3.95;;
15408;SDS011;7803;48.130;13.788;2023-05-07T10:32:18;4.20;;;3.90;;
15408;SDS011;7803;48.130;13.788;2023-05-07T10:35:32;4.38;;;3.97;;
15408;SDS011;7803;48.130;13.788;2023-05-07T10:38:38;4.80;;;4.40;;
15408;SDS011;7803;48.130;13.788;2023-05-07T10:41:41;4.35;;;3.95;;
15408;SDS011;7803;48.130;13.788;2023-05-07T10:44:43;4.72;;;4.32;;
15408;SDS011;7803;48.130;13.788;2023-05-07T10:51:18;4.40;;;4.00;;
15408;SDS011;7803;48.130;13.788;2023-05-07T10:54:22;5.53;;;4.97;;
15408;SDS011;7803;48.130;13.788;2023-05-07T10:57:33;4.47;;;4.07;;
15408;SDS011;7803;48.130;13.788;2023-05-07T11:00:42;4.97;;;4.47;;
15408;SDS011;7803;48.130;13.788;2023-05-07T11:07:25;4.40;;;4.10;;
15408;SDS011;7803;48.130;13.788;2023-05-07T11:10:47;4.35;;;3.95;;
15408;SDS011;7803;48.130;13.788;2023-05-07T11:13:53;4.60;;;4.20;;
15408;SDS011;7803;48.130;13.788;2023-05-07T11:17:01;4.03;;;3.72;;
15408;SDS011;7803;48.130;13.788;2023-05-07T11:20:06;4.43;;;4.03;;
15408;SDS011;7803;48.130;13.788;2023-05-07T11:23:12;4.60;;;4.20;;
15408;SDS011;7803;48.130;13.788;2023-05-07T11:26:49;4.78;;;4.38;;
15408;SDS011;7803;48.130;13.788;2023-05-07T11:29:51;3.90;;;3.60;;
15408;SDS011;7803;48.130;13.788;2023-05-07T11:32:54;3.90;;;3.60;;
15408;SDS011;7803;48.130;13.788;2023-05-07T11:35:57;4.32;;;3.92;;
15408;SDS011;7803;48.130;13.788;2023-05-07T11:39:00;4.00;;;3.65;;
15408;SDS011;7803;48.130;13.788;2023-05-07T11:42:02;3.90;;;3.60;;
15408;SDS011;7803;48.130;13.788;2023-05-07T11:45:04;3.90;;;3.60;;
15408;SDS011;7803;48.130;13.788;2023-05-07T11:48:07;5.38;;;4.32;;
15408;SDS011;7803;48.130;13.788;2023-05-07T11:51:11;4.22;;;3.85;;
15408;SDS011;7803;48.130;13.788;2023-05-07T11:54:15;4.40;;;4.00;;
15408;SDS011;7803;48.130;13.788;2023-05-07T11:57:17;4.00;;;3.70;;
15408;SDS011;7803;48.130;13.788;2023-05-07T12:00:19;4.35;;;3.80;;
15408;SDS011;7803;48.130;13.788;2023-05-07T12:03:21;4.13;;;3.83;;
15408;SDS011;7803;48.130;13.788;2023-05-07T12:06:25;4.13;;;3.75;;
15408;SDS011;7803;48.130;13.788;2023-05-07T12:09:27;3.90;;;3.60;;
15408;SDS011;7803;48.130;13.788;2023-05-07T12:12:29;3.90;;;3.60;;
15408;SDS011;7803;48.130;13.788;2023-05-07T12:15:31;4.20;;;3.80;;
15408;SDS011;7803;48.130;13.788;2023-05-07T12:18:36;3.90;;;3.60;;
15408;SDS011;7803;48.130;13.788;2023-05-07T12:21:40;4.20;;;3.80;;
15408;SDS011;7803;48.130;13.788;2023-05-07T12:24:45;4.05;;;3.70;;
15408;SDS011;7803;48.130;13.788;2023-05-07T12:27:51;3.97;;;3.58;;
15408;SDS011;7803;48.130;13.788;2023-05-07T12:30:53;4.00;;;3.70;;
15408;SDS011;7803;48.130;13.788;2023-05-07T12:33:56;3.70;;;3.40;;
15408;SDS011;7803;48.130;13.788;2023-05-07T12:37:02;3.72;;;3.42;;
15408;SDS011;7803;48.130;13.788;2023-05-07T12:40:05;4.07;;;3.70;;
15408;SDS011;7803;48.130;13.788;2023-05-07T12:43:07;3.92;;;3.63;;
15408;SDS011;7803;48.130;13.788;2023-05-07T12:46:16;3.95;;;3.65;;
15408;SDS011;7803;48.130;13.788;2023-05-07T12:49:18;3.65;;;3.35;;
15408;SDS011;7803;48.130;13.788;2023-05-07T12:52:22;3.80;;;3.50;;
15408;SDS011;7803;48.130;13.788;2023-05-07T12:55:24;3.95;;;3.65;;
15408;SDS011;7803;48.130;13.788;2023-05-07T12:58:27;3.60;;;3.30;;
15408;SDS011;7803;48.130;13.788;2023-05-07T13:01:29;3.72;;;3.42;;
15408;SDS011;7803;48.130;13.788;2023-05-07T13:04:32;3.85;;;3.50;;
15408;SDS011;7803;48.130;13.788;2023-05-07T13:07:36;3.88;;;3.58;;
15408;SDS011;7803;48.130;13.788;2023-05-07T13:10:38;3.33;;;3.10;;
15408;SDS011;7803;48.130;13.788;2023-05-07T13:13:40;3.55;;;3.25;;
15408;SDS011;7803;48.130;13.788;2023-05-07T13:16:42;3.35;;;3.15;;
15408;SDS011;7803;48.130;13.788;2023-05-07T13:19:44;3.53;;;3.22;;
15408;SDS011;7803;48.130;13.788;2023-05-07T13:22:47;3.72;;;3.42;;
15408;SDS011;7803;48.130;13.788;2023-05-07T13:25:49;4.10;;;3.70;;
15408;SDS011;7803;48.130;13.788;2023-05-07T13:28:52;3.60;;;3.30;;
15408;SDS011;7803;48.130;13.788;2023-05-07T13:31:54;3.70;;;3.40;;
15408;SDS011;7803;48.130;13.788;2023-05-07T13:34:57;3.70;;;3.40;;
15408;SDS011;7803;48.130;13.788;2023-05-07T13:38:00;3.75;;;3.45;;
15408;SDS011;7803;48.130;13.788;2023-05-07T13:41:02;3.80;;;3.50;;
15408;SDS011;7803;48.130;13.788;2023-05-07T13:44:04;3.40;;;3.10;;
15408;SDS011;7803;48.130;13.788;2023-05-07T13:47:06;3.90;;;3.50;;
15408;SDS011;7803;48.130;13.788;2023-05-07T13:50:09;3.70;;;3.40;;
15408;SDS011;7803;48.130;13.788;2023-05-07T13:53:14;3.50;;;3.20;;
15408;SDS011;7803;48.130;13.788;2023-05-07T13:56:18;3.65;;;3.35;;
15408;SDS011;7803;48.130;13.788;2023-05-07T13:59:20;3.70;;;3.40;;
15408;SDS011;7803;48.130;13.788;2023-05-07T14:02:22;3.78;;;3.47;;
15408;SDS011;7803;48.130;13.788;2023-05-07T14:05:24;3.80;;;3.40;;
15408;SDS011;7803;48.130;13.788;2023-05-07T14:08:29;3.70;;;3.40;;
15408;SDS011;7803;48.130;13.788;2023-05-07T14:11:31;3.63;;;3.33;;
15408;SDS011;7803;48.130;13.788;2023-05-07T14:14:33;3.95;;;3.25;;
15408;SDS011;7803;48.130;13.788;2023-05-07T14:17:35;3.65;;;3.35;;
15408;SDS011;7803;48.130;13.788;2023-05-07T14:20:37;3.92;;;3.45;;
15408;SDS011;7803;48.130;13.788;2023-05-07T14:23:40;4.38;;;3.97;;
15408;SDS011;7803;48.130;13.788;2023-05-07T14:26:42;3.70;;;3.40;;
15408;SDS011;7803;48.130;13.788;2023-05-07T14:29:45;3.83;;;3.33;;
15408;SDS011;7803;48.130;13.788;2023-05-07T14:32:51;3.47;;;3.17;;
15408;SDS011;7803;48.130;13.788;2023-05-07T14:35:52;3.80;;;3.50;;
15408;SDS011;7803;48.130;13.788;2023-05-07T14:38:56;3.97;;;3.45;;
15408;SDS011;7803;48.130;13.788;2023-05-07T14:41:59;4.05;;;3.65;;
15408;SDS011;7803;48.130;13.788;2023-05-07T14:45:01;3.88;;;3.50;;
15408;SDS011;7803;48.130;13.788;2023-05-07T14:48:04;4.25;;;3.55;;
15408;SDS011;7803;48.130;13.788;2023-05-07T14:51:06;4.47;;;3.80;;
15408;SDS011;7803;48.130;13.788;2023-05-07T14:54:09;3.70;;;3.30;;
15408;SDS011;7803;48.130;13.788;2023-05-07T14:57:14;3.85;;;3.45;;
15408;SDS011;7803;48.130;13.788;2023-05-07T15:00:18;3.83;;;3.42;;
15408;SDS011;7803;48.130;13.788;2023-05-07T15:03:20;3.75;;;3.45;;
15408;SDS011;7803;48.130;13.788;2023-05-07T15:06:23;3.60;;;3.30;;
15408;SDS011;7803;48.130;13.788;2023-05-07T15:09:26;4.70;;;3.85;;
15408;SDS011;7803;48.130;13.788;2023-05-07T15:12:28;3.58;;;3.28;;
15408;SDS011;7803;48.130;13.788;2023-05-07T15:15:30;3.47;;;3.17;;
15408;SDS011;7803;48.130;13.788;2023-05-07T15:18:32;4.25;;;3.40;;
15408;SDS011;7803;48.130;13.788;2023-05-07T15:21:34;3.92;;;3.53;;
15408;SDS011;7803;48.130;13.788;2023-05-07T15:24:38;3.60;;;3.30;;
15408;SDS011;7803;48.130;13.788;2023-05-07T15:27:40;3.47;;;3.15;;
15408;SDS011;7803;48.130;13.788;2023-05-07T15:30:42;3.40;;;3.10;;
15408;SDS011;7803;48.130;13.788;2023-05-07T15:33:44;3.85;;;3.45;;
15408;SDS011;7803;48.130;13.788;2023-05-07T15:36:47;3.60;;;3.30;;
15408;SDS011;7803;48.130;13.788;2023-05-07T15:39:51;3.78;;;3.47;;
15408;SDS011;7803;48.130;13.788;2023-05-07T15:42:54;4.72;;;3.50;;
15408;SDS011;7803;48.130;13.788;2023-05-07T15:45:56;3.65;;;3.35;;
15408;SDS011;7803;48.130;13.788;2023-05-07T15:49:01;3.58;;;3.28;;
15408;SDS011;7803;48.130;13.788;2023-05-07T15:52:04;3.90;;;3.50;;
15408;SDS011;7803;48.130;13.788;2023-05-07T15:55:08;3.67;;;3.25;;
15408;SDS011;7803;48.130;13.788;2023-05-07T15:58:10;4.20;;;3.50;;
15408;SDS011;7803;48.130;13.788;2023-05-07T16:01:12;4.00;;;3.60;;
15408;SDS011;7803;48.130;13.788;2023-05-07T16:04:14;3.53;;;3.22;;
15408;SDS011;7803;48.130;13.788;2023-05-07T16:07:16;3.72;;;3.42;;
15408;SDS011;7803;48.130;13.788;2023-05-07T16:10:20;3.67;;;3.38;;
15408;SDS011;7803;48.130;13.788;2023-05-07T16:13:22;3.38;;;3.08;;
15408;SDS011;7803;48.130;13.788;2023-05-07T16:16:24;3.80;;;3.50;;
15408;SDS011;7803;48.130;13.788;2023-05-07T16:19:29;3.90;;;3.50;;
15408;SDS011;7803;48.130;13.788;2023-05-07T16:22:31;4.03;;;3.63;;
15408;SDS011;7803;48.130;13.788;2023-05-07T16:25:34;3.58;;;3.28;;
15408;SDS011;7803;48.130;13.788;2023-05-07T16:28:36;3.90;;;3.50;;
15408;SDS011;7803;48.130;13.788;2023-05-07T16:31:38;3.92;;;3.50;;
15408;SDS011;7803;48.130;13.788;2023-05-07T16:34:40;3.97;;;3.63;;
15408;SDS011;7803;48.130;13.788;2023-05-07T16:37:42;3.95;;;3.40;;
15408;SDS011;7803;48.130;13.788;2023-05-07T16:40:46;3.42;;;3.13;;
15408;SDS011;7803;48.130;13.788;2023-05-07T16:43:48;4.00;;;3.60;;
15408;SDS011;7803;48.130;13.788;2023-05-07T16:46:50;3.92;;;3.63;;
15408;SDS011;7803;48.130;13.788;2023-05-07T16:49:53;3.50;;;3.20;;
15408;SDS011;7803;48.130;13.788;2023-05-07T16:52:55;3.88;;;3.58;;
15408;SDS011;7803;48.130;13.788;2023-05-07T16:55:58;3.75;;;3.35;;
15408;SDS011;7803;48.130;13.788;2023-05-07T16:59:03;3.60;;;3.30;;
15408;SDS011;7803;48.130;13.788;2023-05-07T17:02:06;3.90;;;3.60;;
15408;SDS011;7803;48.130;13.788;2023-05-07T17:05:08;3.63;;;3.33;;
15408;SDS011;7803;48.130;13.788;2023-05-07T17:08:10;3.80;;;3.50;;
15408;SDS011;7803;48.130;13.788;2023-05-07T17:11:14;3.70;;;3.40;;
15408;SDS011;7803;48.130;13.788;2023-05-07T17:14:15;3.78;;;3.47;;
15408;SDS011;7803;48.130;13.788;2023-05-07T17:17:17;3.78;;;3.47;;
15408;SDS011;7803;48.130;13.788;2023-05-07T17:20:19;3.80;;;3.50;;
15408;SDS011;7803;48.130;13.788;2023-05-07T17:23:22;3.80;;;3.50;;
15408;SDS011;7803;48.130;13.788;2023-05-07T17:26:25;3.80;;;3.50;;
15408;SDS011;7803;48.130;13.788;2023-05-07T17:29:28;4.10;;;3.70;;
15408;SDS011;7803;48.130;13.788;2023-05-07T17:32:30;3.72;;;3.42;;
15408;SDS011;7803;48.130;13.788;2023-05-07T17:35:34;3.83;;;3.53;;
15408;SDS011;7803;48.130;13.788;2023-05-07T17:38:36;3.78;;;3.47;;
15408;SDS011;7803;48.130;13.788;2023-05-07T17:41:39;4.07;;;3.67;;
15408;SDS011;7803;48.130;13.788;2023-05-07T17:44:41;3.85;;;3.35;;
15408;SDS011;7803;48.130;13.788;2023-05-07T17:47:43;3.97;;;3.67;;
15408;SDS011;7803;48.130;13.788;2023-05-07T17:50:45;3.70;;;3.38;;
15408;SDS011;7803;48.130;13.788;2023-05-07T17:53:47;3.60;;;3.30;;
15408;SDS011;7803;48.130;13.788;2023-05-07T17:56:50;3.97;;;3.60;;
15408;SDS011;7803;48.130;13.788;2023-05-07T17:59:52;3.72;;;3.42;;
15408;SDS011;7803;48.130;13.788;2023-05-07T18:02:54;3.83;;;3.53;;
15408;SDS011;7803;48.130;13.788;2023-05-07T18:05:58;3.95;;;3.58;;
15408;SDS011;7803;48.130;13.788;2023-05-07T18:09:01;4.47;;;3.45;;
15408;SDS011;7803;48.130;13.788;2023-05-07T18:12:04;3.90;;;3.60;;
15408;SDS011;7803;48.130;13.788;2023-05-07T18:15:07;3.88;;;3.58;;
15408;SDS011;7803;48.130;13.788;2023-05-07T18:18:09;3.85;;;3.55;;
15408;SDS011;7803;48.130;13.788;2023-05-07T18:21:12;3.90;;;3.53;;
15408;SDS011;7803;48.130;13.788;2023-05-07T18:24:17;3.83;;;3.45;;